Big Ridge, Louisiana
Current Conditions -  °F | °C
As of 4:11 AM on Saturday 25 Oct 2014 (Local Time) from KMLU Reporting Station
Haze Haze  
Wind Chill: 49°   Ceiling: Unl
Heat Index: 49°   Visibility: 0.75mi
Dew Point: 48°   Wind: 0mph
Humidity: 97%   Direction: NA
Pressure: 30.14"   Gusts: NA
Location:  32.1631°N, 92.1971°W
Report Text: KMLU 250911Z AUTO 00000KT 3/4SM BR CLR 09/09 A3014 RMK AO2 T00940089
Loading
Personal Weather Stations






























Interactive Weather Map
Tropical Storm Tracking
New forecast layout! Learn more

10-Day Weather Forecast

Advertisements
Track Severe Weather on mobile